Time;durP1;ratioP1;P1;durP2;ratioP2;P2;SDS_P1;SDS_P2;PMS_P1;PMS_P2;Temp;Humidity;BMP_temperature;BMP_pressure;BME280_temperature;BME280_humidity;BME280_pressure;Samples;Min_cycle;Max_cycle;Signal;HPM_P1;HPM_P2
2021/06/02 00:00:11;;;;;;;17.23;9.50;;;;;;;;;;5023064;28;20194;-70
2021/06/02 00:02:44;;;;;;;12.73;9.57;;;;;;;;;;5014768;28;20284;-69
2021/06/02 00:05:11;;;;;;;15.10;9.15;;;;;;;;;;5019657;28;20309;-69
2021/06/02 00:07:40;;;;;;;17.77;9.73;;;;;;;;;;5018787;28;20190;-70
2021/06/02 00:10:07;;;;;;;11.73;9.02;;;;;;;;;;5024554;28;20260;-69
2021/06/02 00:12:33;;;;;;;11.75;8.95;;;;;;;;;;5016673;28;20205;-69
2021/06/02 00:14:59;;;;;;;12.70;9.45;;;;;;;;;;5023635;28;20736;-70
2021/06/02 00:17:24;;;;;;;18.15;9.52;;;;;;;;;;5018207;28;20300;-69
2021/06/02 00:19:50;;;;;;;17.30;10.18;;;;;;;;;;5020044;28;20277;-69
2021/06/02 00:22:16;;;;;;;12.80;9.93;;;;;;;;;;5028203;28;20202;-70
2021/06/02 00:24:41;;;;;;;14.30;9.73;;;;;;;;;;5015509;28;20650;-70
2021/06/02 00:27:10;;;;;;;12.63;9.43;;;;;;;;;;5014106;28;20240;-70
2021/06/02 00:29:37;;;;;;;16.15;10.05;;;;;;;;;;5013723;28;20197;-70
2021/06/02 00:32:04;;;;;;;12.15;10.60;;;;;;;;;;5022235;28;20202;-68
2021/06/02 00:34:30;;;;;;;15.60;9.68;;;;;;;;;;5012091;28;20190;-69
2021/06/02 00:36:59;;;;;;;12.57;10.20;;;;;;;;;;5019799;28;20190;-69
2021/06/02 00:39:25;;;;;;;14.35;9.68;;;;;;;;;;5015887;28;20193;-69
2021/06/02 00:41:52;;;;;;;16.33;10.57;;;;;;;;;;5024604;28;20225;-68
2021/06/02 00:44:19;;;;;;;15.95;10.00;;;;;;;;;;5015682;28;20522;-68
2021/06/02 00:46:46;;;;;;;12.90;10.20;;;;;;;;;;5022051;28;20646;-68
2021/06/02 00:49:22;;;;;;;14.02;9.77;;;;;;;;;;5009716;28;20190;-68
2021/06/02 00:51:55;;;;;;;13.57;10.10;;;;;;;;;;5023520;28;20178;-69
2021/06/02 00:54:22;;;;;;;16.17;9.88;;;;;;;;;;5013564;28;20277;-68
2021/06/02 00:57:02;;;;;;;13.38;10.45;;;;;;;;;;5022738;28;20224;-68
2021/06/02 00:59:37;;;;;;;14.95;10.25;;;;;;;;;;5022925;28;20255;-68
2021/06/02 01:02:03;;;;;;;12.57;10.15;;;;;;;;;;5023218;28;20209;-68
2021/06/02 01:04:29;;;;;;;14.68;10.88;;;;;;;;;;5022925;28;20655;-69
2021/06/02 01:06:55;;;;;;;15.30;10.55;;;;;;;;;;5011213;28;20195;-68
2021/06/02 01:09:22;;;;;;;13.38;11.18;;;;;;;;;;5026528;28;20649;-68
2021/06/02 01:11:49;;;;;;;14.18;10.73;;;;;;;;;;5017222;28;20211;-68
2021/06/02 01:14:15;;;;;;;13.30;10.55;;;;;;;;;;5022195;28;20185;-69
2021/06/02 01:16:41;;;;;;;13.82;10.75;;;;;;;;;;5015772;28;20190;-69
2021/06/02 01:19:09;;;;;;;17.55;11.48;;;;;;;;;;5027752;28;20190;-69
2021/06/02 01:21:50;;;;;;;16.83;11.02;;;;;;;;;;5016397;28;20666;-69
2021/06/02 01:24:16;;;;;;;14.80;10.57;;;;;;;;;;5024446;28;20776;-69
2021/06/02 01:26:42;;;;;;;13.35;10.32;;;;;;;;;;5019716;28;20277;-69
2021/06/02 01:29:07;;;;;;;15.68;10.68;;;;;;;;;;5028000;28;20286;-69
2021/06/02 01:32:17;;;;;;;16.98;11.20;;;;;;;;;;5018260;28;20178;-69
2021/06/02 01:34:58;;;;;;;17.75;12.30;;;;;;;;;;5026047;28;20672;-69
2021/06/02 01:37:39;;;;;;;18.35;11.82;;;;;;;;;;5018364;28;20198;-69
2021/06/02 01:40:32;;;;;;;17.42;11.70;;;;;;;;;;5028947;28;20182;-69
2021/06/02 01:43:22;;;;;;;16.33;10.93;;;;;;;;;;5017496;28;20217;-69
2021/06/02 01:45:59;;;;;;;12.35;9.98;;;;;;;;;;5027683;28;20198;-69
2021/06/02 01:48:29;;;;;;;17.30;11.25;;;;;;;;;;5019774;28;20216;-69
2021/06/02 01:51:16;;;;;;;17.50;11.40;;;;;;;;;;5027838;28;20206;-69
2021/06/02 01:54:05;;;;;;;14.55;11.57;;;;;;;;;;5021502;28;20224;-69
2021/06/02 01:56:52;;;;;;;15.93;11.88;;;;;;;;;;5026910;28;20224;-69
2021/06/02 01:59:52;;;;;;;18.73;12.07;;;;;;;;;;5020205;28;20286;-69
2021/06/02 02:02:50;;;;;;;18.50;12.63;;;;;;;;;;5024072;28;20524;-69
2021/06/02 02:05:48;;;;;;;16.83;10.93;;;;;;;;;;5029853;28;20186;-69
2021/06/02 02:08:55;;;;;;;19.40;11.70;;;;;;;;;;5016902;28;20239;-69
2021/06/02 02:11:37;;;;;;;18.50;12.05;;;;;;;;;;5000157;28;20569;-69
2021/06/02 02:14:40;;;;;;;13.77;11.18;;;;;;;;;;5021078;28;20680;-69
2021/06/02 02:17:24;;;;;;;17.77;12.13;;;;;;;;;;5022303;28;20194;-69
2021/06/02 02:20:01;;;;;;;23.75;11.98;;;;;;;;;;5018251;28;20186;-69
2021/06/02 02:22:58;;;;;;;14.55;11.82;;;;;;;;;;5023357;28;20205;-69
2021/06/02 02:25:38;;;;;;;18.48;11.43;;;;;;;;;;5020563;28;20943;-72
2021/06/02 02:28:32;;;;;;;18.45;11.82;;;;;;;;;;5023602;28;20182;-69
2021/06/02 02:31:22;;;;;;;17.00;12.15;;;;;;;;;;5018860;28;20544;-69
2021/06/02 02:34:03;;;;;;;19.63;13.27;;;;;;;;;;5021667;28;20186;-69
2021/06/02 02:36:39;;;;;;;18.88;12.45;;;;;;;;;;5015744;28;20194;-69
2021/06/02 02:39:24;;;;;;;18.33;13.68;;;;;;;;;;5028666;28;20255;-69
2021/06/02 02:42:20;;;;;;;20.85;13.70;;;;;;;;;;5020263;28;20229;-68
2021/06/02 02:45:09;;;;;;;19.60;13.05;;;;;;;;;;5019021;28;20681;-69
2021/06/02 02:47:47;;;;;;;22.33;13.63;;;;;;;;;;5021406;28;20650;-69
2021/06/02 02:50:37;;;;;;;22.60;14.30;;;;;;;;;;5013863;28;20194;-68
2021/06/02 02:53:14;;;;;;;15.63;12.88;;;;;;;;;;5022853;28;20277;-69
2021/06/02 02:55:40;;;;;;;20.33;12.88;;;;;;;;;;5009690;28;20570;-69
2021/06/02 02:58:16;;;;;;;16.55;12.23;;;;;;;;;;5020958;28;20187;-68
2021/06/02 03:00:46;;;;;;;23.15;14.65;;;;;;;;;;5016283;28;20221;-69
2021/06/02 03:03:34;;;;;;;18.30;13.32;;;;;;;;;;5023640;28;20210;-69
2021/06/02 03:06:10;;;;;;;18.00;13.27;;;;;;;;;;5016209;28;20194;-69
2021/06/02 03:08:49;;;;;;;22.33;14.13;;;;;;;;;;5023131;28;20193;-69
2021/06/02 03:11:19;;;;;;;19.20;13.25;;;;;;;;;;5018784;28;20225;-69
2021/06/02 03:14:01;;;;;;;20.45;14.38;;;;;;;;;;5023323;28;20182;-68
2021/06/02 03:16:34;;;;;;;18.60;13.98;;;;;;;;;;5019965;28;20653;-69
2021/06/02 03:19:13;;;;;;;23.23;14.23;;;;;;;;;;5027524;28;20182;-69
2021/06/02 03:21:57;;;;;;;19.85;14.27;;;;;;;;;;5016450;28;20673;-69
2021/06/02 03:24:22;;;;;;;19.35;13.82;;;;;;;;;;5026600;28;20650;-69
2021/06/02 03:26:58;;;;;;;19.30;14.35;;;;;;;;;;5020351;28;20217;-69
2021/06/02 03:29:37;;;;;;;20.33;13.75;;;;;;;;;;5025414;28;20182;-69
2021/06/02 03:32:06;;;;;;;19.08;15.00;;;;;;;;;;5020359;28;20217;-69
2021/06/02 03:34:50;;;;;;;20.48;15.50;;;;;;;;;;5023391;28;20186;-69
2021/06/02 03:37:51;;;;;;;21.75;15.30;;;;;;;;;;5019139;28;20214;-69
2021/06/02 03:40:30;;;;;;;21.38;15.18;;;;;;;;;;5015359;28;20194;-69
2021/06/02 03:43:24;;;;;;;18.70;14.02;;;;;;;;;;5014977;28;20236;-69
2021/06/02 03:46:08;;;;;;;19.83;14.15;;;;;;;;;;5021705;28;20190;-69
2021/06/02 03:49:18;;;;;;;18.50;14.10;;;;;;;;;;5016217;28;20246;-69
2021/06/02 03:51:50;;;;;;;21.40;14.10;;;;;;;;;;5022797;28;20198;-69
2021/06/02 03:54:40;;;;;;;19.98;15.25;;;;;;;;;;5014721;28;20189;-69
2021/06/02 03:57:23;;;;;;;25.35;17.02;;;;;;;;;;5026461;28;20196;-69
2021/06/02 04:00:14;;;;;;;20.77;15.27;;;;;;;;;;5016806;28;20193;-69
2021/06/02 04:02:54;;;;;;;23.38;15.20;;;;;;;;;;5027336;28;20610;-69
2021/06/02 04:05:58;;;;;;;22.73;15.77;;;;;;;;;;5014835;28;20197;-69
2021/06/02 04:08:48;;;;;;;21.60;15.63;;;;;;;;;;5025103;28;20681;-69
2021/06/02 04:11:44;;;;;;;23.42;15.43;;;;;;;;;;5021092;28;20273;-69
2021/06/02 04:14:13;;;;;;;24.75;15.75;;;;;;;;;;5012328;28;20247;-69
2021/06/02 04:16:41;;;;;;;22.48;16.42;;;;;;;;;;5027345;28;20190;-69
2021/06/02 04:19:13;;;;;;;24.25;15.68;;;;;;;;;;5021013;28;20221;-69
2021/06/02 04:21:41;;;;;;;22.35;15.38;;;;;;;;;;5015213;28;20214;-69
2021/06/02 04:24:10;;;;;;;23.38;16.63;;;;;;;;;;5017697;28;20181;-69
2021/06/02 04:26:37;;;;;;;22.90;16.13;;;;;;;;;;5017466;28;20204;-69
2021/06/02 04:29:11;;;;;;;24.08;16.98;;;;;;;;;;5022787;28;20186;-72
2021/06/02 04:31:38;;;;;;;21.42;16.52;;;;;;;;;;5016745;28;20268;-69
2021/06/02 04:34:04;;;;;;;23.15;15.88;;;;;;;;;;5025461;28;20190;-69
2021/06/02 04:36:31;;;;;;;24.42;17.02;;;;;;;;;;5014230;28;20600;-69
2021/06/02 04:38:59;;;;;;;19.52;15.02;;;;;;;;;;5022218;28;20185;-69
2021/06/02 04:41:29;;;;;;;21.77;16.02;;;;;;;;;;5016555;28;20226;-69
2021/06/02 04:43:58;;;;;;;21.02;15.55;;;;;;;;;;5022449;28;20664;-69
2021/06/02 04:46:24;;;;;;;22.73;15.95;;;;;;;;;;5012526;28;20667;-69
2021/06/02 04:48:51;;;;;;;20.38;15.38;;;;;;;;;;5024497;28;20189;-69
2021/06/02 04:52:02;;;;;;;23.60;15.90;;;;;;;;;;5013540;28;20186;-68
2021/06/02 04:54:51;;;;;;;25.48;16.17;;;;;;;;;;5023233;28;20200;-68
2021/06/02 04:57:54;;;;;;;24.05;15.35;;;;;;;;;;5017970;28;20689;-69
2021/06/02 05:00:38;;;;;;;23.45;15.75;;;;;;;;;;5021734;28;20552;-68
2021/06/02 05:03:28;;;;;;;23.02;14.63;;;;;;;;;;5018321;28;20217;-69
2021/06/02 05:06:02;;;;;;;21.58;15.63;;;;;;;;;;5026458;28;20265;-69
2021/06/02 05:09:01;;;;;;;28.27;15.88;;;;;;;;;;5013934;28;20196;-69
2021/06/02 05:11:32;;;;;;;20.38;14.77;;;;;;;;;;5018886;28;20265;-69
2021/06/02 05:14:33;;;;;;;25.02;15.57;;;;;;;;;;5017149;28;20206;-68
2021/06/02 05:17:24;;;;;;;19.20;14.63;;;;;;;;;;5018060;28;20193;-69
2021/06/02 05:20:20;;;;;;;20.45;14.20;;;;;;;;;;5016811;28;20232;-68
2021/06/02 05:23:12;;;;;;;21.73;14.88;;;;;;;;;;5012845;28;20202;-69
2021/06/02 05:26:11;;;;;;;20.38;13.70;;;;;;;;;;5021982;28;20194;-69
2021/06/02 05:28:45;;;;;;;19.38;14.55;;;;;;;;;;5015808;28;20201;-69
2021/06/02 05:31:32;;;;;;;23.92;13.93;;;;;;;;;;5024924;28;20198;-69
2021/06/02 05:34:32;;;;;;;22.67;14.35;;;;;;;;;;5008985;28;20265;-69
2021/06/02 05:37:18;;;;;;;20.33;14.60;;;;;;;;;;5023508;28;20187;-69
2021/06/02 05:39:58;;;;;;;19.13;14.02;;;;;;;;;;5015486;28;20202;-68
2021/06/02 05:43:05;;;;;;;20.70;13.65;;;;;;;;;;5023214;28;20957;-69
2021/06/02 05:45:52;;;;;;;17.80;13.25;;;;;;;;;;5014202;28;20209;-69
2021/06/02 05:48:56;;;;;;;17.98;14.02;;;;;;;;;;5025821;28;20521;-68
2021/06/02 05:51:59;;;;;;;20.48;13.98;;;;;;;;;;4998139;28;20582;-69
2021/06/02 05:54:49;;;;;;;19.20;13.10;;;;;;;;;;4301913;28;10000830;-69
2021/06/02 05:57:26;;;;;;;16.50;13.02;;;;;;;;;;4997129;28;20194;-69
2021/06/02 06:00:08;;;;;;;18.42;12.73;;;;;;;;;;5003121;28;20225;-69
2021/06/02 06:02:59;;;;;;;15.82;12.73;;;;;;;;;;5009887;28;20206;-69
2021/06/02 06:05:30;;;;;;;14.95;11.95;;;;;;;;;;5005603;28;20247;-69
2021/06/02 06:08:20;;;;;;;18.65;13.13;;;;;;;;;;5009761;28;20182;-69
2021/06/02 06:11:27;;;;;;;16.88;12.65;;;;;;;;;;5028986;28;20248;-69
2021/06/02 06:14:38;;;;;;;18.52;12.63;;;;;;;;;;5024278;28;20183;-69
2021/06/02 06:17:37;;;;;;;19.88;11.75;;;;;;;;;;5013838;28;20190;-69
2021/06/02 06:20:31;;;;;;;16.65;12.85;;;;;;;;;;5020367;28;20196;-69
2021/06/02 06:23:27;;;;;;;16.95;11.30;;;;;;;;;;5017732;28;20214;-69
2021/06/02 06:26:00;;;;;;;13.85;11.10;;;;;;;;;;5021287;28;20194;-69
2021/06/02 06:28:28;;;;;;;15.43;11.15;;;;;;;;;;5015457;28;20458;-69
2021/06/02 06:30:54;;;;;;;15.73;10.65;;;;;;;;;;5023127;28;20194;-69
2021/06/02 06:33:22;;;;;;;12.35;10.05;;;;;;;;;;5013476;28;20500;-69
2021/06/02 06:35:51;;;;;;;14.55;9.65;;;;;;;;;;5023838;28;20194;-69
2021/06/02 06:39:05;;;;;;;19.98;11.38;;;;;;;;;;5013262;28;20191;-69
2021/06/02 06:41:33;;;;;;;14.52;10.27;;;;;;;;;;5018629;28;20314;-70
2021/06/02 06:44:01;;;;;;;15.02;9.98;;;;;;;;;;5019671;28;20198;-69
2021/06/02 06:46:28;;;;;;;14.02;9.07;;;;;;;;;;5021932;28;20185;-69
2021/06/02 06:48:56;;;;;;;15.80;9.98;;;;;;;;;;5023335;28;20217;-69
2021/06/02 06:51:24;;;;;;;13.13;9.98;;;;;;;;;;5023471;28;20214;-69
2021/06/02 06:53:50;;;;;;;12.38;9.70;;;;;;;;;;5023398;28;20193;-69
2021/06/02 06:56:18;;;;;;;12.55;9.48;;;;;;;;;;5027391;28;20194;-68
2021/06/02 06:58:44;;;;;;;14.32;10.05;;;;;;;;;;5017796;28;20650;-69
2021/06/02 07:01:13;;;;;;;14.88;9.80;;;;;;;;;;5022367;28;20300;-69
2021/06/02 07:03:39;;;;;;;12.30;10.50;;;;;;;;;;5021788;28;20206;-69
2021/06/02 07:06:05;;;;;;;15.07;10.38;;;;;;;;;;5023011;28;20260;-68
2021/06/02 07:08:32;;;;;;;11.25;9.80;;;;;;;;;;5022597;28;20634;-70
2021/06/02 07:11:00;;;;;;;10.57;9.48;;;;;;;;;;5023369;28;20310;-69
2021/06/02 07:13:26;;;;;;;13.38;10.20;;;;;;;;;;5014550;28;20617;-69
2021/06/02 07:15:52;;;;;;;12.55;9.38;;;;;;;;;;5025113;28;20189;-69
2021/06/02 07:18:21;;;;;;;12.60;9.73;;;;;;;;;;5028798;28;20638;-68
2021/06/02 07:20:50;;;;;;;14.13;11.05;;;;;;;;;;5015684;28;20186;-68
2021/06/02 07:23:16;;;;;;;13.80;10.90;;;;;;;;;;5026674;28;20198;-68
2021/06/02 07:25:42;;;;;;;13.55;10.60;;;;;;;;;;5017428;28;20178;-69
2021/06/02 07:28:13;;;;;;;14.20;11.65;;;;;;;;;;5025053;28;20268;-68
2021/06/02 07:30:38;;;;;;;15.55;11.02;;;;;;;;;;5012758;28;20189;-68
2021/06/02 07:33:07;;;;;;;13.50;10.52;;;;;;;;;;5025986;28;20190;-67
2021/06/02 07:35:32;;;;;;;16.83;11.48;;;;;;;;;;5016979;28;20190;-69
2021/06/02 07:37:58;;;;;;;13.40;10.55;;;;;;;;;;5021925;28;20182;-68
2021/06/02 07:40:23;;;;;;;16.10;12.07;;;;;;;;;;5011923;28;20186;-69
2021/06/02 07:42:49;;;;;;;16.60;10.90;;;;;;;;;;5029514;28;20663;-68
2021/06/02 07:45:16;;;;;;;14.10;11.48;;;;;;;;;;5017857;28;20189;-68
2021/06/02 07:47:42;;;;;;;16.80;11.85;;;;;;;;;;5027373;28;20232;-69
2021/06/02 07:50:08;;;;;;;17.15;11.65;;;;;;;;;;5017399;28;20193;-69
2021/06/02 07:52:33;;;;;;;13.55;11.43;;;;;;;;;;5026453;28;20201;-69
2021/06/02 07:54:59;;;;;;;17.15;11.88;;;;;;;;;;5027784;28;20784;-69
2021/06/02 07:57:24;;;;;;;15.05;12.15;;;;;;;;;;5019164;28;20236;-68
2021/06/02 07:59:50;;;;;;;13.48;11.23;;;;;;;;;;5025766;28;20225;-70
2021/06/02 08:02:15;;;;;;;14.27;11.45;;;;;;;;;;5016833;28;20229;-69
2021/06/02 08:04:42;;;;;;;16.35;11.73;;;;;;;;;;5021603;28;20643;-69
2021/06/02 08:07:08;;;;;;;13.38;11.25;;;;;;;;;;5017090;28;20212;-68
2021/06/02 08:09:34;;;;;;;13.60;10.63;;;;;;;;;;5027301;28;20269;-69
2021/06/02 08:11:59;;;;;;;15.57;11.40;;;;;;;;;;5015926;28;20193;-69
2021/06/02 08:14:25;;;;;;;13.70;10.23;;;;;;;;;;5027197;28;20189;-69
2021/06/02 08:16:50;;;;;;;14.18;10.68;;;;;;;;;;5015120;28;20189;-69
2021/06/02 08:19:15;;;;;;;13.93;10.45;;;;;;;;;;5027437;28;20241;-69
2021/06/02 08:21:41;;;;;;;20.95;12.02;;;;;;;;;;5021257;28;20566;-69
2021/06/02 08:24:07;;;;;;;15.77;10.70;;;;;;;;;;5017025;28;20178;-69
2021/06/02 08:26:37;;;;;;;13.38;10.65;;;;;;;;;;5028299;28;20205;-69
2021/06/02 08:29:04;;;;;;;12.07;10.63;;;;;;;;;;5017986;28;20335;-69
2021/06/02 08:31:30;;;;;;;12.68;10.48;;;;;;;;;;5024259;28;20323;-69
2021/06/02 08:33:56;;;;;;;13.90;9.60;;;;;;;;;;5017393;28;20280;-69
2021/06/02 08:36:22;;;;;;;12.57;10.48;;;;;;;;;;5024356;28;20647;-69
2021/06/02 08:38:47;;;;;;;12.88;11.10;;;;;;;;;;5015880;28;20213;-69
2021/06/02 08:41:12;;;;;;;16.40;11.20;;;;;;;;;;5019169;28;20304;-69
2021/06/02 08:43:42;;;;;;;12.90;10.93;;;;;;;;;;5015463;28;20221;-69
2021/06/02 08:46:08;;;;;;;14.23;10.73;;;;;;;;;;5021719;28;20197;-69
2021/06/02 08:48:33;;;;;;;15.77;9.98;;;;;;;;;;5014917;28;20236;-69
2021/06/02 08:50:59;;;;;;;17.73;10.93;;;;;;;;;;5025278;28;20185;-69
2021/06/02 08:53:24;;;;;;;13.95;9.45;;;;;;;;;;5018910;28;20197;-69
2021/06/02 08:55:50;;;;;;;13.50;10.23;;;;;;;;;;5014394;28;20194;-69
2021/06/02 08:58:17;;;;;;;15.60;10.07;;;;;;;;;;5025905;28;20597;-69
2021/06/02 09:00:42;;;;;;;15.18;10.35;;;;;;;;;;5013946;28;20232;-69
2021/06/02 09:03:08;;;;;;;15.43;9.95;;;;;;;;;;5024426;28;20724;-68
2021/06/02 09:05:33;;;;;;;13.95;9.63;;;;;;;;;;5017183;28;20559;-69
2021/06/02 09:08:00;;;;;;;12.57;9.60;;;;;;;;;;5022563;28;20580;-69
2021/06/02 09:10:25;;;;;;;11.20;8.85;;;;;;;;;;5017246;28;20186;-70
2021/06/02 09:12:58;;;;;;;14.95;9.65;;;;;;;;;;5021162;28;20232;-69
2021/06/02 09:15:32;;;;;;;14.40;10.93;;;;;;;;;;5014373;28;20933;-69
2021/06/02 09:17:59;;;;;;;11.10;8.48;;;;;;;;;;5028526;28;20580;-69
2021/06/02 09:20:42;;;;;;;9.57;8.50;;;;;;;;;;5013658;28;20190;-69
2021/06/02 09:23:37;;;;;;;12.80;9.48;;;;;;;;;;5018589;28;20210;-69
2021/06/02 09:26:26;;;;;;;13.32;8.10;;;;;;;;;;5018750;28;20216;-69
2021/06/02 09:28:58;;;;;;;9.35;7.63;;;;;;;;;;5022860;28;20724;-69
2021/06/02 09:31:41;;;;;;;9.75;7.03;;;;;;;;;;5019944;28;20174;-70
2021/06/02 09:34:06;;;;;;;11.13;9.30;;;;;;;;;;5023630;28;20247;-70
2021/06/02 09:36:37;;;;;;;11.25;9.07;;;;;;;;;;5012338;28;20659;-69
2021/06/02 09:39:08;;;;;;;12.38;8.32;;;;;;;;;;5021940;28;20205;-69
2021/06/02 09:41:51;;;;;;;12.30;7.32;;;;;;;;;;5012924;28;20267;-69
2021/06/02 09:44:17;;;;;;;10.52;7.78;;;;;;;;;;5024081;28;20324;-70
2021/06/02 09:47:07;;;;;;;11.38;7.30;;;;;;;;;;5017098;28;20393;-69
2021/06/02 09:49:47;;;;;;;13.02;8.48;;;;;;;;;;5022212;28;20629;-68
2021/06/02 09:52:13;;;;;;;11.40;8.43;;;;;;;;;;5018016;28;20194;-69
2021/06/02 09:54:38;;;;;;;12.10;8.32;;;;;;;;;;5025835;28;20248;-70
2021/06/02 09:57:16;;;;;;;9.40;8.15;;;;;;;;;;5019233;28;20243;-69
2021/06/02 09:59:59;;;;;;;10.27;8.18;;;;;;;;;;5024113;28;20189;-70
2021/06/02 10:02:25;;;;;;;10.68;8.75;;;;;;;;;;5014593;28;20716;-69
2021/06/02 10:05:04;;;;;;;9.25;8.02;;;;;;;;;;5024631;28;20193;-70
2021/06/02 10:07:30;;;;;;;15.48;8.40;;;;;;;;;;5024751;28;20227;-69
2021/06/02 10:10:07;;;;;;;11.55;8.25;;;;;;;;;;5024164;28;20186;-69
2021/06/02 10:12:32;;;;;;;12.82;8.57;;;;;;;;;;5020256;28;20212;-69
2021/06/02 10:14:59;;;;;;;11.27;8.70;;;;;;;;;;5020149;28;20202;-69
2021/06/02 10:17:29;;;;;;;11.82;8.38;;;;;;;;;;5026412;28;20193;-69
2021/06/02 10:19:56;;;;;;;14.55;7.80;;;;;;;;;;5014140;28;20182;-69
2021/06/02 10:22:25;;;;;;;10.50;7.68;;;;;;;;;;5028367;28;20662;-69
2021/06/02 10:24:53;;;;;;;13.32;7.28;;;;;;;;;;5016150;28;20256;-69
2021/06/02 10:27:19;;;;;;;10.65;7.85;;;;;;;;;;5020818;28;20201;-69
2021/06/02 10:29:45;;;;;;;10.95;7.70;;;;;;;;;;5016767;28;20178;-69
2021/06/02 10:32:11;;;;;;;7.97;6.75;;;;;;;;;;5031013;28;20248;-69
2021/06/02 10:34:37;;;;;;;10.98;7.40;;;;;;;;;;5016920;28;20650;-69
2021/06/02 10:37:02;;;;;;;10.80;7.80;;;;;;;;;;5028593;28;20535;-69
2021/06/02 10:39:31;;;;;;;10.45;7.82;;;;;;;;;;5014659;28;20203;-69
2021/06/02 10:42:03;;;;;;;11.75;8.07;;;;;;;;;;5029046;28;20628;-69
2021/06/02 10:44:36;;;;;;;8.82;7.03;;;;;;;;;;5014993;28;20189;-70
2021/06/02 10:47:03;;;;;;;10.98;6.93;;;;;;;;;;5028209;28;20186;-69
2021/06/02 10:49:36;;;;;;;11.90;8.10;;;;;;;;;;5016260;28;20186;-69
2021/06/02 10:52:03;;;;;;;9.27;7.88;;;;;;;;;;5026274;28;20269;-70
2021/06/02 10:54:34;;;;;;;10.00;8.02;;;;;;;;;;5023758;28;20284;-69
2021/06/02 10:57:00;;;;;;;10.70;8.38;;;;;;;;;;5019126;28;20178;-69
2021/06/02 10:59:30;;;;;;;13.70;8.27;;;;;;;;;;5023428;28;20237;-70
2021/06/02 11:02:05;;;;;;;11.68;8.02;;;;;;;;;;5020287;28;20221;-69
2021/06/02 11:04:32;;;;;;;10.68;8.02;;;;;;;;;;5027805;28;20200;-69
2021/06/02 11:07:17;;;;;;;12.32;8.65;;;;;;;;;;5015739;28;20244;-69
2021/06/02 11:09:57;;;;;;;13.05;8.20;;;;;;;;;;5019118;28;20186;-69
2021/06/02 11:12:49;;;;;;;11.43;7.22;;;;;;;;;;5011804;28;20216;-68
2021/06/02 11:15:30;;;;;;;9.45;6.50;;;;;;;;;;5025406;28;20212;-69
2021/06/02 11:18:08;;;;;;;9.20;6.00;;;;;;;;;;5018461;28;20192;-69
2021/06/02 11:20:45;;;;;;;9.68;6.47;;;;;;;;;;5023551;28;20630;-68
2021/06/02 11:23:14;;;;;;;9.00;6.10;;;;;;;;;;5013610;28;20589;-68
2021/06/02 11:25:40;;;;;;;9.45;6.00;;;;;;;;;;5025851;28;20563;-70
2021/06/02 11:28:07;;;;;;;7.75;5.60;;;;;;;;;;5016518;28;20178;-68
2021/06/02 11:30:33;;;;;;;9.23;6.28;;;;;;;;;;5025783;28;20186;-68
2021/06/02 11:33:07;;;;;;;11.13;7.10;;;;;;;;;;5018220;28;20268;-69
2021/06/02 11:36:04;;;;;;;8.63;6.10;;;;;;;;;;5023526;28;20178;-69
2021/06/02 11:38:30;;;;;;;7.95;5.50;;;;;;;;;;5027282;28;20285;-68
2021/06/02 11:40:56;;;;;;;6.50;5.53;;;;;;;;;;5025487;28;20233;-69
2021/06/02 11:43:22;;;;;;;9.93;5.45;;;;;;;;;;5018144;28;20280;-69
2021/06/02 11:45:49;;;;;;;9.50;5.50;;;;;;;;;;5023245;28;20178;-68
2021/06/02 11:48:22;;;;;;;6.72;5.20;;;;;;;;;;5016481;28;20243;-68
2021/06/02 11:50:48;;;;;;;8.15;5.43;;;;;;;;;;5025842;28;20178;-69
2021/06/02 11:53:13;;;;;;;8.50;5.35;;;;;;;;;;5017363;28;20182;-69
2021/06/02 11:55:39;;;;;;;6.30;4.85;;;;;;;;;;5024038;28;20182;-68
2021/06/02 11:58:04;;;;;;;5.63;4.82;;;;;;;;;;5017898;28;20545;-68
2021/06/02 12:00:34;;;;;;;6.93;4.65;;;;;;;;;;5026625;28;20186;-69
2021/06/02 12:03:04;;;;;;;7.07;5.75;;;;;;;;;;5025185;28;20213;-69
2021/06/02 12:05:34;;;;;;;8.13;5.57;;;;;;;;;;5024885;28;20181;-69
2021/06/02 12:08:17;;;;;;;7.20;4.97;;;;;;;;;;5026278;28;20186;-68
2021/06/02 12:10:47;;;;;;;7.68;4.28;;;;;;;;;;5018809;28;20178;-69
2021/06/02 12:13:31;;;;;;;10.73;5.40;;;;;;;;;;5025222;28;20244;-74
2021/06/02 12:16:00;;;;;;;6.80;5.25;;;;;;;;;;5019153;28;20182;-68
2021/06/02 12:18:42;;;;;;;5.43;4.45;;;;;;;;;;5025647;28;20190;-69
2021/06/02 12:21:21;;;;;;;8.00;4.55;;;;;;;;;;5020423;28;20588;-69
2021/06/02 12:23:54;;;;;;;6.88;4.88;;;;;;;;;;5021913;28;20330;-70
2021/06/02 12:26:26;;;;;;;7.22;4.93;;;;;;;;;;5015279;28;20183;-69
2021/06/02 12:28:53;;;;;;;7.70;4.10;;;;;;;;;;5020880;28;20201;-68
2021/06/02 12:31:48;;;;;;;6.50;3.67;;;;;;;;;;5014920;28;20296;-69
2021/06/02 12:34:23;;;;;;;7.00;4.28;;;;;;;;;;5020053;28;20215;-68
2021/06/02 12:36:52;;;;;;;4.53;3.40;;;;;;;;;;5012735;28;20242;-69
2021/06/02 12:39:28;;;;;;;6.68;3.00;;;;;;;;;;5018781;28;20193;-70
2021/06/02 12:41:54;;;;;;;6.18;3.30;;;;;;;;;;5015131;28;20237;-68
2021/06/02 12:44:27;;;;;;;6.72;3.30;;;;;;;;;;5018858;28;20277;-68
2021/06/02 12:46:57;;;;;;;3.45;2.65;;;;;;;;;;5017662;28;20196;-69
2021/06/02 12:49:22;;;;;;;4.97;3.20;;;;;;;;;;5020325;28;20662;-68
2021/06/02 12:51:54;;;;;;;3.53;3.22;;;;;;;;;;5011868;28;20190;-69
2021/06/02 12:54:24;;;;;;;3.50;3.05;;;;;;;;;;5022909;28;20687;-69
2021/06/02 12:56:49;;;;;;;5.95;3.03;;;;;;;;;;5014752;28;20660;-68
2021/06/02 12:59:15;;;;;;;3.05;2.85;;;;;;;;;;5023045;28;20187;-68
2021/06/02 13:01:41;;;;;;;6.45;2.90;;;;;;;;;;5017722;28;20372;-68
2021/06/02 13:04:07;;;;;;;3.33;3.03;;;;;;;;;;5023441;28;20216;-67
2021/06/02 13:06:32;;;;;;;4.25;3.22;;;;;;;;;;5017831;28;20181;-68
2021/06/02 13:09:06;;;;;;;4.43;2.97;;;;;;;;;;5022551;28;20244;-68
2021/06/02 13:11:33;;;;;;;5.20;3.45;;;;;;;;;;5014819;28;20229;-67
2021/06/02 13:14:01;;;;;;;4.78;2.75;;;;;;;;;;5020677;28;20614;-68
2021/06/02 13:16:28;;;;;;;3.67;2.92;;;;;;;;;;5016906;28;20190;-68
2021/06/02 13:19:05;;;;;;;4.22;3.20;;;;;;;;;;5013491;28;20494;-69
2021/06/02 13:21:32;;;;;;;3.50;3.20;;;;;;;;;;5031262;28;20177;-68
2021/06/02 13:24:14;;;;;;;5.13;2.97;;;;;;;;;;5015107;28;20567;-68
2021/06/02 13:26:44;;;;;;;3.88;3.17;;;;;;;;;;5023359;28;20194;-67
2021/06/02 13:29:11;;;;;;;5.93;3.00;;;;;;;;;;5016227;28;20186;-68
2021/06/02 13:31:45;;;;;;;3.67;2.90;;;;;;;;;;5032782;28;20217;-68
2021/06/02 13:34:36;;;;;;;5.07;2.80;;;;;;;;;;5017556;28;20830;-68
2021/06/02 13:37:15;;;;;;;3.33;2.53;;;;;;;;;;5024796;28;20190;-69
2021/06/02 13:39:41;;;;;;;5.18;2.95;;;;;;;;;;5019123;28;20186;-67
2021/06/02 13:42:08;;;;;;;2.97;2.50;;;;;;;;;;5026570;28;20246;-68
2021/06/02 13:44:33;;;;;;;3.28;2.55;;;;;;;;;;5018300;28;20242;-68
2021/06/02 13:46:59;;;;;;;6.20;2.88;;;;;;;;;;5028764;28;20744;-69
2021/06/02 13:49:37;;;;;;;3.42;2.70;;;;;;;;;;5015423;28;20190;-68
2021/06/02 13:52:04;;;;;;;3.28;2.60;;;;;;;;;;5024167;28;20244;-68
2021/06/02 13:54:31;;;;;;;3.00;2.60;;;;;;;;;;5016812;28;20654;-68
2021/06/02 13:57:01;;;;;;;3.78;2.55;;;;;;;;;;5027222;28;20261;-68
2021/06/02 13:59:49;;;;;;;3.75;2.67;;;;;;;;;;5016232;28;20186;-69
2021/06/02 14:02:16;;;;;;;3.40;2.70;;;;;;;;;;5025891;28;20206;-69
2021/06/02 14:04:44;;;;;;;3.15;2.63;;;;;;;;;;5018662;28;20209;-69
2021/06/02 14:07:13;;;;;;;3.10;2.80;;;;;;;;;;5028648;28;20189;-69
2021/06/02 14:09:39;;;;;;;2.45;2.25;;;;;;;;;;5017856;28;20198;-69
2021/06/02 14:12:06;;;;;;;3.05;2.55;;;;;;;;;;5025754;28;20190;-69
2021/06/02 14:14:32;;;;;;;6.78;2.90;;;;;;;;;;5021544;28;20185;-69
2021/06/02 14:16:58;;;;;;;2.65;2.45;;;;;;;;;;5025089;28;20564;-70
2021/06/02 14:19:23;;;;;;;2.97;2.63;;;;;;;;;;5021507;28;20187;-70
2021/06/02 14:21:49;;;;;;;4.40;2.65;;;;;;;;;;5017457;28;20184;-69
2021/06/02 14:24:15;;;;;;;3.00;2.42;;;;;;;;;;5022245;28;20185;-69
2021/06/02 14:26:42;;;;;;;4.85;2.60;;;;;;;;;;5016230;28;20194;-69
2021/06/02 14:29:10;;;;;;;5.55;2.63;;;;;;;;;;5023901;28;20232;-72
2021/06/02 14:31:36;;;;;;;2.97;2.40;;;;;;;;;;5016055;28;20194;-68
2021/06/02 14:34:03;;;;;;;2.92;2.60;;;;;;;;;;5025290;28;20186;-69
2021/06/02 14:36:30;;;;;;;3.38;2.50;;;;;;;;;;5016151;28;20247;-69
2021/06/02 14:38:56;;;;;;;5.43;2.25;;;;;;;;;;5025809;28;20356;-69
2021/06/02 14:41:21;;;;;;;2.80;2.38;;;;;;;;;;5017568;28;20265;-70
2021/06/02 14:43:47;;;;;;;2.67;2.47;;;;;;;;;;5024961;28;20206;-69
2021/06/02 14:46:12;;;;;;;2.78;2.50;;;;;;;;;;5021545;28;20186;-70
2021/06/02 14:48:37;;;;;;;2.83;2.33;;;;;;;;;;5022578;28;20194;-70
2021/06/02 14:51:04;;;;;;;2.60;2.40;;;;;;;;;;5025966;28;20189;-72
2021/06/02 14:53:30;;;;;;;2.70;2.50;;;;;;;;;;5015841;28;20384;-69
2021/06/02 14:55:57;;;;;;;2.67;2.45;;;;;;;;;;5023706;28;20204;-69
2021/06/02 14:58:23;;;;;;;3.97;2.35;;;;;;;;;;5014675;28;20204;-72
2021/06/02 15:00:48;;;;;;;3.03;2.40;;;;;;;;;;5021097;28;20240;-70
2021/06/02 15:03:14;;;;;;;4.50;2.60;;;;;;;;;;5014056;28;20218;-70
2021/06/02 15:05:40;;;;;;;6.25;2.60;;;;;;;;;;5025849;28;20231;-70